Impacts TAF Board
For situational awareness. Not to be used for flight planning purposes.
IDs:

KHDC - Hammond/Northshore R, LA, US

Issued at 1449 UTC 15 Oct 2018
Updated at 1538 UTC 15 Oct 2018
Potential Impact None Slight Moderate High
Time<<16/04Z 16/05Z 16/06Z 16/07Z 16/08Z 16/09Z 16/10Z 16/11Z 16/12Z 16/13Z 16/14Z 16/15Z 16/16Z>>
Type PRVL PRVL PRVL PRVL PRVL PRVL PRVL PRVL
VIS >6 >6 >6 5 5 5 5 5
CIG 25 25 25 8 8 8 8 8
Cover OVC OVC OVC BKN BKN BKN BKN BKN
FltCat MVFR MVFR MVFR IFR IFR IFR IFR IFR
WX VCSH VCSH VCSH BR BR BR BR BR
WDir 20 20 20 VRB VRB VRB VRB VRB
WSpd 5 5 5 4 4 4 4 4
WGst -- -- -- -- -- -- -- --
Raw TAF
KHDC 151449Z 1515/1612 00000KT P6SM BKN013 BKN018 BKN050
  FM151700 12004KT P6SM VCSH BKN025 BKN070
  FM152100 03004KT P6SM VCSH BKN040 OVC080
  FM160400 02005KT P6SM VCSH BKN025 OVC030
  FM160700 VRB04KT 5SM BR BKN008


METAR Board
Radar Display
Forecast Discussion
For situational awareness. Not to be used for flight planning purposes.